createdAt,value
2023-02-05T00:00:52.157Z,-0.65
2023-02-05T00:03:54.685Z,-0.67
2023-02-05T00:06:56.757Z,-0.69
2023-02-05T00:09:59.536Z,-0.71
2023-02-05T00:13:00.827Z,-0.70
2023-02-05T00:16:07.109Z,-0.71
2023-02-05T00:19:09.690Z,-0.75
2023-02-05T00:22:11.754Z,-0.82
2023-02-05T00:25:14.312Z,-0.88
2023-02-05T00:28:15.681Z,-0.84
2023-02-05T00:31:21.038Z,-0.95
2023-02-05T00:34:23.019Z,-0.97
2023-02-05T00:37:25.010Z,-0.96
2023-02-05T00:40:27.609Z,-1.00
2023-02-05T00:43:28.908Z,-1.02
2023-02-05T00:46:31.490Z,-1.00
2023-02-05T00:49:34.117Z,-1.06
2023-02-05T00:52:36.155Z,-1.19
2023-02-05T00:55:38.719Z,-1.19
2023-02-05T00:58:40.010Z,-1.21
2023-02-05T01:01:42.591Z,-1.32
2023-02-05T01:04:45.318Z,-1.32
2023-02-05T01:07:47.281Z,-1.32
2023-02-05T01:10:51.294Z,-1.35
2023-02-05T01:13:52.609Z,-1.38
2023-02-05T01:16:55.193Z,-1.46
2023-02-05T01:19:56.968Z,-1.45
2023-02-05T01:22:58.958Z,-1.42
2023-02-05T01:26:01.661Z,-1.51
2023-02-05T01:29:03.017Z,-1.55
2023-02-05T01:32:05.138Z,-1.69
2023-02-05T01:35:08.634Z,-1.70
2023-02-05T01:38:10.771Z,-1.79
2023-02-05T01:41:13.719Z,-1.75
2023-02-05T01:44:17.700Z,-1.76
2023-02-05T01:47:19.924Z,-1.87
2023-02-05T01:50:27.921Z,-1.83
2023-02-05T01:53:33.087Z,-1.87
2023-02-05T01:56:38.990Z,-1.94
2023-02-05T01:59:43.851Z,-1.90
2023-02-05T02:02:45.741Z,-1.88
2023-02-05T02:05:47.006Z,-1.91
2023-02-05T02:12:10.971Z,-2.00
2023-02-05T02:15:15.645Z,-2.02
2023-02-05T02:18:29.066Z,-2.00
2023-02-05T02:22:26.545Z,-1.97
2023-02-05T02:25:57.809Z,-1.97
2023-02-05T02:29:02.959Z,-2.10
2023-02-05T02:32:12.701Z,-2.12
2023-02-05T02:35:20.367Z,-2.20
2023-02-05T02:38:28.443Z,-2.24
2023-02-05T02:41:35.979Z,-2.24
2023-02-05T02:44:48.973Z,-2.25
2023-02-05T02:47:55.174Z,-2.32
2023-02-05T02:50:58.358Z,-2.29
2023-02-05T02:54:05.051Z,-2.32
2023-02-05T02:57:09.963Z,-2.26
2023-02-05T03:00:18.012Z,-2.32
2023-02-05T03:03:23.257Z,-2.35
2023-02-05T03:06:27.417Z,-2.41
2023-02-05T03:09:34.610Z,-2.41
2023-02-05T03:12:35.993Z,-2.39
2023-02-05T03:15:41.355Z,-2.41
2023-02-05T03:18:42.969Z,-2.49
2023-02-05T03:21:49.401Z,-2.44
2023-02-05T03:24:51.955Z,-2.43
2023-02-05T03:27:54.705Z,-2.40
2023-02-05T03:31:03.691Z,-2.45
2023-02-05T03:34:19.066Z,-2.49
2023-02-05T03:37:31.383Z,-2.48
2023-02-05T03:40:43.269Z,-2.49
2023-02-05T03:43:53.750Z,-2.43
2023-02-05T03:47:02.373Z,-2.48
2023-02-05T03:50:12.414Z,-2.54
2023-02-05T03:53:22.546Z,-2.43
2023-02-05T03:56:28.490Z,-2.39
2023-02-05T03:59:32.271Z,-2.35
2023-02-05T04:02:34.285Z,-2.38
2023-02-05T04:05:36.139Z,-2.45
2023-02-05T04:08:37.646Z,-2.51
2023-02-05T04:11:38.978Z,-2.50
2023-02-05T04:14:41.123Z,-2.42
2023-02-05T04:17:43.055Z,-2.50
2023-02-05T04:20:44.656Z,-2.48
2023-02-05T04:23:46.859Z,-2.40
2023-02-05T04:26:50.210Z,-2.42
2023-02-05T04:29:51.505Z,-2.39
2023-02-05T04:32:53.481Z,-2.41
2023-02-05T04:35:58.873Z,-2.53
2023-02-05T04:39:01.068Z,-2.46
2023-02-05T04:42:02.369Z,-2.52
2023-02-05T04:45:05.180Z,-2.50
2023-02-05T04:48:07.141Z,-2.47
2023-02-05T04:51:11.035Z,-2.43
2023-02-05T04:54:12.380Z,-2.42
2023-02-05T04:57:14.558Z,-2.37
2023-02-05T05:00:17.128Z,-2.37
2023-02-05T05:03:19.072Z,-2.35
2023-02-05T05:06:21.306Z,-2.31
2023-02-05T05:09:24.347Z,-2.28
2023-02-05T05:12:25.657Z,-2.32
2023-02-05T05:15:27.887Z,-2.34
2023-02-05T05:18:30.322Z,-2.37
2023-02-05T05:21:32.694Z,-2.30
2023-02-05T05:24:34.899Z,-2.24
2023-02-05T05:27:36.261Z,-2.22
2023-02-05T05:30:38.045Z,-2.28
2023-02-05T05:33:40.950Z,-2.39
2023-02-05T05:36:42.961Z,-2.38
2023-02-05T05:40:02.550Z,-2.34
2023-02-05T05:43:21.730Z,-2.37
2023-02-05T05:46:25.831Z,-2.31
2023-02-05T05:49:27.883Z,-2.37
2023-02-05T05:52:32.382Z,-2.36
2023-02-05T05:55:35.193Z,-2.39
2023-02-05T05:58:36.942Z,-2.32
2023-02-05T06:01:39.177Z,-2.20
2023-02-05T06:04:42.066Z,-2.37
2023-02-05T06:07:44.044Z,-2.38
2023-02-05T06:10:46.492Z,-2.33
2023-02-05T06:13:47.798Z,-2.29
2023-02-05T06:16:50.087Z,-2.32
2023-02-05T06:19:52.057Z,-2.28
2023-02-05T06:22:54.431Z,-2.26
2023-02-05T06:25:55.726Z,-2.24
2023-02-05T06:29:02.324Z,-2.21
2023-02-05T06:32:03.918Z,-2.14
2023-02-05T06:35:06.835Z,-2.09
2023-02-05T06:38:09.124Z,-2.08
2023-02-05T06:41:10.423Z,-2.02
2023-02-05T06:44:12.579Z,-1.95
2023-02-05T06:47:15.212Z,-1.90
2023-02-05T06:50:17.229Z,-1.83
2023-02-05T06:53:19.428Z,-1.76
2023-02-05T06:56:20.698Z,-1.74
2023-02-05T06:59:22.923Z,-1.73
2023-02-05T07:02:25.363Z,-1.77
2023-02-05T07:05:27.519Z,-1.76
2023-02-05T07:08:29.719Z,-1.73
2023-02-05T07:11:31.233Z,-1.70
2023-02-05T07:14:36.815Z,-1.63
2023-02-05T07:17:39.563Z,-1.63
2023-02-05T07:20:41.487Z,-1.57
2023-02-05T07:23:43.822Z,-1.50
2023-02-05T07:26:45.097Z,-1.42
2023-02-05T07:29:47.494Z,-1.36
2023-02-05T07:32:49.735Z,-1.36
2023-02-05T07:35:53.908Z,-1.33
2023-02-05T07:38:56.120Z,-1.19
2023-02-05T07:41:57.393Z,-1.15
2023-02-05T07:44:59.126Z,-1.18
2023-02-05T07:48:01.305Z,-1.11
2023-02-05T07:51:03.963Z,-1.04
2023-02-05T07:54:06.592Z,-1.00
2023-02-05T07:57:07.882Z,-0.90
2023-02-05T08:00:10.093Z,-0.90
2023-02-05T08:03:12.338Z,-0.76
2023-02-05T08:06:15.858Z,-0.78
2023-02-05T08:09:18.064Z,-0.66
2023-02-05T08:12:19.389Z,-0.58
2023-02-05T08:15:21.803Z,-0.47
2023-02-05T08:18:24.523Z,-0.43
2023-02-05T08:21:26.449Z,-0.33
2023-02-05T08:24:29.163Z,-0.20
2023-02-05T08:27:31.896Z,-0.24
2023-02-05T08:30:34.102Z,-0.17
2023-02-05T08:33:35.384Z,-0.13
2023-02-05T08:36:38.259Z,-0.19
2023-02-05T08:39:39.862Z,0.00
2023-02-05T08:42:41.149Z,0.03
2023-02-05T08:45:47.401Z,0.08
2023-02-05T08:48:49.112Z,0.08
2023-02-05T08:51:52.542Z,0.19
2023-02-05T08:54:53.829Z,0.24
2023-02-05T08:57:55.154Z,0.34
2023-02-05T09:01:00.893Z,0.39
2023-02-05T09:04:02.347Z,0.35
2023-02-05T09:07:04.362Z,0.35
2023-02-05T09:10:08.111Z,0.38
2023-02-05T09:13:09.348Z,0.46
2023-02-05T09:16:12.239Z,0.50
2023-02-05T09:19:13.523Z,0.63
2023-02-05T09:25:39.208Z,0.63
2023-02-05T09:28:40.523Z,0.74
2023-02-05T09:31:42.750Z,0.85
2023-02-05T09:34:44.040Z,0.98
2023-02-05T09:37:47.269Z,1.07
2023-02-05T09:40:57.362Z,1.10
2023-02-05T09:44:05.224Z,1.19
2023-02-05T09:47:14.515Z,1.33
2023-02-05T09:50:24.897Z,1.28
2023-02-05T09:53:34.032Z,1.39
2023-02-05T09:59:59.588Z,1.53
2023-02-05T10:06:46.638Z,1.67
2023-02-05T10:10:02.056Z,1.60
2023-02-05T10:13:36.404Z,1.77
2023-02-05T10:16:48.549Z,1.89
2023-02-05T10:20:02.661Z,2.01
2023-02-05T10:23:16.937Z,2.27
2023-02-05T10:26:23.208Z,2.21
2023-02-05T10:29:38.727Z,2.38
2023-02-05T10:32:53.234Z,2.54
2023-02-05T10:36:00.840Z,2.40
2023-02-05T10:39:11.359Z,2.35
2023-02-05T10:42:25.445Z,2.80
2023-02-05T10:45:28.779Z,2.56
2023-02-05T10:48:40.892Z,2.32
2023-02-05T10:51:44.469Z,2.41
2023-02-05T10:54:47.459Z,2.59
2023-02-05T10:57:49.613Z,2.66
2023-02-05T11:00:51.518Z,2.81
2023-02-05T11:03:58.382Z,2.97
2023-02-05T11:07:06.539Z,2.93
2023-02-05T11:10:15.753Z,3.07
2023-02-05T11:13:21.287Z,3.15
2023-02-05T11:16:25.230Z,3.12
2023-02-05T11:19:28.575Z,3.31
2023-02-05T11:22:35.597Z,3.26
2023-02-05T11:25:49.444Z,3.14
2023-02-05T11:28:53.233Z,3.35
2023-02-05T11:31:54.611Z,3.48
2023-02-05T11:35:10.991Z,3.60
2023-02-05T11:38:29.055Z,3.28
2023-02-05T11:41:33.316Z,2.93
2023-02-05T11:44:46.373Z,2.87
2023-02-05T11:47:49.371Z,3.10
2023-02-05T11:50:51.954Z,3.15
2023-02-05T11:53:59.142Z,2.96
2023-02-05T11:57:06.747Z,3.09
2023-02-05T12:00:22.940Z,3.24
2023-02-05T12:03:32.056Z,3.12
2023-02-05T12:06:41.905Z,3.23
2023-02-05T12:09:44.463Z,3.27
2023-02-05T12:12:59.095Z,3.20
2023-02-05T12:16:13.908Z,3.28
2023-02-05T12:19:21.027Z,3.45
2023-02-05T12:22:45.789Z,3.35
2023-02-05T12:25:57.806Z,3.31
2023-02-05T12:29:13.396Z,3.34
2023-02-05T12:32:27.634Z,3.28
2023-02-05T12:35:49.044Z,3.55
2023-02-05T12:39:03.377Z,3.51
2023-02-05T12:42:16.478Z,3.54
2023-02-05T12:45:41.162Z,3.62
2023-02-05T12:49:00.604Z,3.57
2023-02-05T12:52:20.342Z,3.47
2023-02-05T12:55:37.744Z,3.63
2023-02-05T12:58:42.329Z,3.61
2023-02-05T13:01:50.729Z,3.41
2023-02-05T13:05:00.749Z,3.41
2023-02-05T13:08:09.185Z,3.45
2023-02-05T13:11:17.590Z,3.26
2023-02-05T13:14:24.311Z,3.14
2023-02-05T13:17:27.814Z,3.24
2023-02-05T13:20:54.455Z,3.17
2023-02-05T13:24:23.539Z,3.19
2023-02-05T13:27:49.017Z,3.10
2023-02-05T13:30:56.680Z,3.41
2023-02-05T13:34:05.281Z,3.10
2023-02-05T13:37:24.442Z,3.07
2023-02-05T13:40:44.176Z,3.23
2023-02-05T13:44:14.717Z,3.32
2023-02-05T13:48:02.190Z,3.28
2023-02-05T13:51:38.562Z,3.14
2023-02-05T13:55:05.121Z,3.21
2023-02-05T13:58:22.669Z,3.02
2023-02-05T14:01:28.759Z,3.08
2023-02-05T14:08:02.228Z,3.08
2023-02-05T14:11:05.424Z,2.99
2023-02-05T14:14:28.601Z,3.17
2023-02-05T14:17:54.210Z,3.12
2023-02-05T14:20:55.715Z,3.00
2023-02-05T14:23:59.049Z,3.06
2023-02-05T14:27:01.047Z,3.08
2023-02-05T14:30:38.068Z,3.02
2023-02-05T14:33:41.286Z,3.07
2023-02-05T14:36:44.636Z,2.88
2023-02-05T14:39:46.034Z,2.97
2023-02-05T14:42:50.115Z,2.66
2023-02-05T14:45:52.960Z,2.94
2023-02-05T14:48:58.716Z,2.90
2023-02-05T14:52:02.575Z,2.91
2023-02-05T14:55:09.316Z,2.93
2023-02-05T14:58:24.946Z,2.86
2023-02-05T15:01:45.625Z,2.70
2023-02-05T15:04:49.960Z,2.69
2023-02-05T15:07:59.376Z,2.51
2023-02-05T15:11:08.553Z,2.57
2023-02-05T15:14:42.966Z,2.67
2023-02-05T15:17:51.798Z,2.49
2023-02-05T15:20:55.796Z,2.48
2023-02-05T15:24:01.007Z,2.35
2023-02-05T15:27:06.597Z,2.48
2023-02-05T15:33:50.176Z,2.26
2023-02-05T15:36:56.927Z,2.22
2023-02-05T15:40:04.854Z,2.21
2023-02-05T15:43:15.878Z,2.18
2023-02-05T15:46:19.882Z,2.12
2023-02-05T15:49:29.375Z,2.07
2023-02-05T15:52:32.585Z,2.00
2023-02-05T15:55:35.675Z,1.88
2023-02-05T15:58:41.245Z,1.78
2023-02-05T16:01:47.124Z,1.77
2023-02-05T16:04:56.287Z,1.64
2023-02-05T16:08:01.254Z,1.59
2023-02-05T16:11:04.607Z,1.42
2023-02-05T16:14:08.991Z,1.41
2023-02-05T16:17:16.885Z,1.37
2023-02-05T16:20:27.233Z,1.25
2023-02-05T16:23:33.191Z,1.12
2023-02-05T16:26:40.975Z,1.08
2023-02-05T16:29:48.722Z,1.03
2023-02-05T16:32:53.427Z,0.92
2023-02-05T16:35:56.462Z,0.94
2023-02-05T16:42:35.430Z,1.13
2023-02-05T16:45:38.425Z,1.10
2023-02-05T16:48:49.938Z,1.11
2023-02-05T16:51:55.559Z,1.07
2023-02-05T16:54:57.456Z,1.05
2023-02-05T16:58:05.064Z,1.03
2023-02-05T17:01:06.947Z,1.09
2023-02-05T17:04:25.885Z,0.97
2023-02-05T17:07:29.320Z,0.98
2023-02-05T17:10:32.485Z,0.98
2023-02-05T17:13:39.157Z,1.04
2023-02-05T17:16:41.754Z,1.02
2023-02-05T17:20:00.928Z,0.94
2023-02-05T17:23:09.986Z,0.92
2023-02-05T17:26:11.433Z,0.87
2023-02-05T17:29:15.324Z,0.80
2023-02-05T17:32:18.556Z,0.78
2023-02-05T17:35:23.823Z,0.72
2023-02-05T17:38:26.485Z,0.68
2023-02-05T17:41:51.336Z,0.62
2023-02-05T17:44:52.869Z,0.56
2023-02-05T17:47:55.442Z,0.53
2023-02-05T17:50:58.506Z,0.44
2023-02-05T17:54:01.329Z,0.42
2023-02-05T17:57:14.114Z,0.36
2023-02-05T18:00:18.975Z,0.32
2023-02-05T18:03:21.488Z,0.28
2023-02-05T18:06:23.452Z,0.24
2023-02-05T18:09:25.998Z,0.15
2023-02-05T18:12:28.858Z,0.06
2023-02-05T18:15:31.437Z,0.03
2023-02-05T18:18:37.042Z,-0.01
2023-02-05T18:21:39.155Z,-0.08
2023-02-05T18:28:02.571Z,-0.14
2023-02-05T18:31:06.061Z,-0.18
2023-02-05T18:34:08.635Z,-0.18
2023-02-05T18:37:13.306Z,-0.18
2023-02-05T18:40:14.700Z,-0.20
2023-02-05T18:43:15.989Z,-0.20
2023-02-05T18:46:20.636Z,-0.29
2023-02-05T18:49:23.350Z,-0.35
2023-02-05T18:52:26.468Z,-0.42
2023-02-05T18:55:29.676Z,-0.45
2023-02-05T18:58:32.282Z,-0.47
2023-02-05T19:01:37.402Z,-0.49
2023-02-05T19:04:38.931Z,-0.55
2023-02-05T19:07:40.895Z,-0.60
2023-02-05T19:10:43.418Z,-0.62
2023-02-05T19:13:44.727Z,-0.61
2023-02-05T19:16:48.357Z,-0.63
2023-02-05T19:19:51.051Z,-0.70
2023-02-05T19:22:53.026Z,-0.73
2023-02-05T19:25:55.590Z,-0.83
2023-02-05T19:28:58.973Z,-0.83
2023-02-05T19:32:00.279Z,-0.94
2023-02-05T19:35:03.152Z,-0.96
2023-02-05T19:38:05.124Z,-1.05
2023-02-05T19:41:09.381Z,-1.06
2023-02-05T19:44:11.222Z,-1.03
2023-02-05T19:47:13.815Z,-1.08
2023-02-05T19:50:16.902Z,-1.13
2023-02-05T19:53:20.421Z,-1.12
2023-02-05T19:56:23.097Z,-1.19
2023-02-05T19:59:24.513Z,-1.15
2023-02-05T20:02:27.593Z,-1.12
2023-02-05T20:08:51.508Z,-1.26
2023-02-05T20:11:53.607Z,-1.31
2023-02-05T20:14:54.960Z,-1.35
2023-02-05T20:17:58.568Z,-1.33
2023-02-05T20:21:00.051Z,-1.29
2023-02-05T20:24:03.783Z,-1.35
2023-02-05T20:27:05.150Z,-1.36
2023-02-05T20:30:27.425Z,-1.40
2023-02-05T20:33:29.959Z,-1.46
2023-02-05T20:36:32.717Z,-1.48
2023-02-05T20:39:38.867Z,-1.48
2023-02-05T20:42:41.372Z,-1.59
2023-02-05T20:45:42.652Z,-1.70
2023-02-05T20:48:45.192Z,-1.72
2023-02-05T20:51:46.748Z,-1.71
2023-02-05T20:54:49.885Z,-1.79
2023-02-05T20:57:51.133Z,-1.79
2023-02-05T21:00:53.837Z,-1.79
2023-02-05T21:03:57.444Z,-1.82
2023-02-05T21:07:00.146Z,-1.86
2023-02-05T21:10:03.264Z,-1.84
2023-02-05T21:13:05.811Z,-1.84
2023-02-05T21:16:08.316Z,-1.97
2023-02-05T21:19:12.771Z,-2.00
2023-02-05T21:22:15.303Z,-1.96
2023-02-05T21:25:18.574Z,-2.03
2023-02-05T21:28:19.840Z,-2.05
2023-02-05T21:31:23.554Z,-2.02
2023-02-05T21:34:26.764Z,-1.97
2023-02-05T21:37:29.356Z,-1.95
2023-02-05T21:40:34.798Z,-1.99
2023-02-05T21:43:36.815Z,-2.00
2023-02-05T21:46:40.088Z,-1.98
2023-02-05T21:49:41.493Z,-2.04
2023-02-05T21:52:44.262Z,-2.13
2023-02-05T21:55:47.614Z,-2.16
2023-02-05T21:58:49.249Z,-2.23
2023-02-05T22:01:52.348Z,-2.19
2023-02-05T22:04:53.653Z,-2.27
2023-02-05T22:07:56.213Z,-2.26
2023-02-05T22:11:02.508Z,-2.34
2023-02-05T22:14:05.198Z,-2.34
2023-02-05T22:17:07.861Z,-2.31
2023-02-05T22:20:10.509Z,-2.32
2023-02-05T22:23:13.466Z,-2.38
2023-02-05T22:26:17.783Z,-2.40
2023-02-05T22:29:20.049Z,-2.50
2023-02-05T22:32:22.667Z,-2.53
2023-02-05T22:35:24.071Z,-2.54
2023-02-05T22:38:27.364Z,-2.56
2023-02-05T22:41:31.832Z,-2.57
2023-02-05T22:44:35.393Z,-2.57
2023-02-05T22:47:37.913Z,-2.53
2023-02-05T22:50:41.596Z,-2.53
2023-02-05T22:53:44.594Z,-2.66
2023-02-05T22:56:47.877Z,-2.70
2023-02-05T22:59:49.293Z,-2.72
2023-02-05T23:02:51.779Z,-2.72
2023-02-05T23:05:53.033Z,-2.70
2023-02-05T23:08:57.452Z,-2.69
2023-02-05T23:12:00.234Z,-2.73
2023-02-05T23:15:03.052Z,-2.76
2023-02-05T23:18:05.631Z,-2.79
2023-02-05T23:21:07.915Z,-2.78
2023-02-05T23:24:10.790Z,-2.80
2023-02-05T23:27:12.852Z,-2.78
2023-02-05T23:30:16.013Z,-2.80
2023-02-05T23:33:18.731Z,-2.85
2023-02-05T23:36:20.385Z,-2.86
2023-02-05T23:39:23.177Z,-2.83
2023-02-05T23:42:25.449Z,-2.82
2023-02-05T23:45:27.977Z,-2.80
2023-02-05T23:48:30.791Z,-2.84
2023-02-05T23:51:34.696Z,-2.90
2023-02-05T23:54:35.994Z,-2.87
2023-02-05T23:57:39.337Z,-2.90
